createdAt,value
2023-03-04T00:00:33.472Z,100.00
2023-03-04T00:03:00.448Z,100.00
2023-03-04T00:05:27.334Z,100.00
2023-03-04T00:07:54.199Z,100.00
2023-03-04T00:20:17.855Z,100.00
2023-03-04T00:22:44.813Z,100.00
2023-03-04T00:25:14.610Z,100.00
2023-03-04T00:27:42.559Z,100.00
2023-03-04T00:30:10.182Z,100.00
2023-03-04T00:32:37.512Z,100.00
2023-03-04T00:35:06.606Z,100.00
2023-03-04T00:37:38.107Z,100.00
2023-03-04T00:56:30.610Z,100.00
2023-03-04T00:58:57.651Z,100.00
2023-03-04T01:01:25.767Z,100.00
2023-03-04T01:03:54.243Z,100.00
2023-03-04T01:06:22.900Z,100.00
2023-03-04T01:08:49.921Z,100.00
2023-03-04T01:11:17.232Z,100.00
2023-03-04T01:13:46.908Z,100.00
2023-03-04T01:16:14.067Z,100.00
2023-03-04T01:18:41.305Z,100.00
2023-03-04T01:21:09.291Z,100.00
2023-03-04T01:23:36.210Z,100.00
2023-03-04T01:26:03.514Z,100.00
2023-03-04T01:28:35.157Z,100.00
2023-03-04T01:31:03.841Z,100.00
2023-03-04T01:33:31.211Z,100.00
2023-03-04T01:35:58.288Z,100.00
2023-03-04T01:38:26.363Z,100.00
2023-03-04T01:51:21.597Z,100.00
2023-03-04T01:53:52.935Z,100.00
2023-03-04T01:56:39.575Z,100.00
2023-03-04T01:59:29.921Z,100.00
2023-03-04T02:01:59.890Z,100.00
2023-03-04T02:04:32.350Z,100.00
2023-03-04T02:07:01.710Z,100.00
2023-03-04T02:09:30.452Z,100.00
2023-03-04T02:11:57.774Z,100.00
2023-03-04T02:14:25.537Z,100.00
2023-03-04T02:16:56.017Z,100.00
2023-03-04T02:19:23.527Z,100.00
2023-03-04T02:21:51.294Z,100.00
2023-03-04T02:24:37.664Z,100.00
2023-03-04T02:43:14.252Z,100.00
2023-03-04T02:45:49.471Z,100.00
2023-03-04T02:48:19.626Z,100.00
2023-03-04T02:50:52.443Z,100.00
2023-03-04T02:53:20.957Z,100.00
2023-03-04T02:55:48.648Z,100.00
2023-03-04T02:58:18.090Z,100.00
2023-03-04T03:00:47.446Z,100.00
2023-03-04T03:03:19.912Z,100.00
2023-03-04T03:05:47.126Z,100.00
2023-03-04T03:08:14.443Z,100.00
2023-03-04T03:10:42.025Z,100.00
2023-03-04T03:13:09.119Z,100.00
2023-03-04T03:15:41.688Z,100.00
2023-03-04T03:18:10.458Z,100.00
2023-03-04T03:20:37.745Z,100.00
2023-03-04T03:23:06.887Z,100.00
2023-03-04T03:41:21.006Z,100.00
2023-03-04T03:43:48.311Z,100.00
2023-03-04T03:46:15.234Z,100.00
2023-03-04T03:48:43.544Z,100.00
2023-03-04T03:51:10.479Z,100.00
2023-03-04T03:53:37.766Z,100.00
2023-03-04T03:56:05.103Z,100.00
2023-03-04T03:58:32.158Z,100.00
2023-03-04T04:00:59.070Z,100.00
2023-03-04T04:03:27.496Z,100.00
2023-03-04T04:05:54.396Z,100.00
2023-03-04T04:08:24.646Z,100.00
2023-03-04T04:10:52.704Z,100.00
2023-03-04T04:13:19.928Z,100.00
2023-03-04T04:15:53.662Z,100.00
2023-03-04T04:18:24.728Z,100.00
2023-03-04T04:20:52.248Z,100.00
2023-03-04T04:23:20.252Z,100.00
2023-03-04T04:25:47.194Z,100.00
2023-03-04T04:28:14.424Z,100.00
2023-03-04T04:30:42.125Z,100.00
2023-03-04T04:33:12.052Z,100.00
2023-03-04T04:35:39.530Z,100.00
2023-03-04T04:38:07.693Z,100.00
2023-03-04T04:40:34.907Z,100.00
2023-03-04T04:43:02.749Z,100.00
2023-03-04T04:45:30.131Z,100.00
2023-03-04T04:47:57.142Z,100.00
2023-03-04T04:50:25.438Z,100.00
2023-03-04T04:52:52.468Z,100.00
2023-03-04T05:09:36.449Z,100.00
2023-03-04T05:12:03.662Z,100.00
2023-03-04T05:14:35.064Z,100.00
2023-03-04T05:17:02.381Z,100.00
2023-03-04T05:19:29.429Z,100.00
2023-03-04T05:21:58.990Z,100.00
2023-03-04T05:24:25.882Z,100.00
2023-03-04T05:32:10.966Z,100.00
2023-03-04T05:34:37.851Z,100.00
2023-03-04T05:37:04.849Z,100.00
2023-03-04T05:39:33.297Z,100.00
2023-03-04T05:43:04.162Z,100.00
2023-03-04T05:45:33.151Z,100.00
2023-03-04T05:48:00.335Z,100.00
2023-03-04T05:50:27.270Z,100.00
2023-03-04T05:52:55.174Z,100.00
2023-03-04T05:56:00.393Z,100.00
2023-03-04T05:58:27.357Z,100.00
2023-03-04T06:00:59.822Z,100.00
2023-03-04T06:03:27.135Z,100.00
2023-03-04T06:05:55.786Z,100.00
2023-03-04T06:08:23.515Z,100.00
2023-03-04T06:10:54.154Z,100.00
2023-03-04T06:13:25.486Z,100.00
2023-03-04T06:15:57.901Z,100.00
2023-03-04T06:18:26.465Z,100.00
2023-03-04T06:21:00.889Z,100.00
2023-03-04T06:23:30.008Z,100.00
2023-03-04T06:25:58.905Z,100.00
2023-03-04T06:28:26.258Z,100.00
2023-03-04T06:30:55.238Z,100.00
2023-03-04T06:33:25.262Z,100.00
2023-03-04T06:35:56.841Z,100.00
2023-03-04T06:38:25.149Z,100.00
2023-03-04T06:40:56.746Z,100.00
2023-03-04T06:43:24.144Z,100.00
2023-03-04T06:45:51.213Z,100.00
2023-03-04T06:48:18.391Z,100.00
2023-03-04T06:50:45.342Z,100.00
2023-03-04T06:53:12.262Z,100.00
2023-03-04T07:04:47.326Z,100.00
2023-03-04T07:07:14.259Z,100.00
2023-03-04T07:10:21.559Z,100.00
2023-03-04T07:12:48.492Z,100.00
2023-03-04T07:15:15.757Z,100.00
2023-03-04T07:17:43.797Z,100.00
2023-03-04T07:20:11.307Z,100.00
2023-03-04T07:22:38.341Z,100.00
2023-03-04T07:33:44.769Z,100.00
2023-03-04T07:36:14.282Z,100.00
2023-03-04T07:38:45.939Z,100.00
2023-03-04T07:41:13.886Z,100.00
2023-03-04T07:43:40.780Z,100.00
2023-03-04T07:46:08.359Z,100.00
2023-03-04T08:08:55.873Z,100.00
2023-03-04T08:37:44.785Z,79.83
2023-03-04T08:37:46.302Z,88.47
2023-03-04T08:40:38.930Z,79.27
2023-03-04T08:52:17.879Z,77.06
2023-03-04T08:52:27.882Z,77.12
2023-03-04T08:58:47.325Z,77.49
2023-03-04T09:10:02.628Z,75.47
2023-03-04T09:18:52.183Z,74.31
2023-03-04T09:59:23.116Z,72.13
2023-03-04T10:06:09.156Z,71.47
2023-03-04T10:08:48.908Z,70.36
2023-03-04T10:11:33.900Z,70.16
2023-03-04T10:14:20.734Z,69.06
2023-03-04T10:16:57.423Z,67.52
2023-03-04T10:19:43.630Z,69.02
2023-03-04T10:22:19.145Z,70.90
2023-03-04T10:24:47.580Z,72.38
2023-03-04T10:27:19.070Z,70.96
2023-03-04T10:29:48.962Z,69.59
2023-03-04T10:32:20.968Z,68.58
2023-03-04T10:34:48.000Z,67.99
2023-03-04T10:37:15.050Z,67.07
2023-03-04T10:39:46.068Z,66.90
2023-03-04T10:42:16.152Z,65.83
2023-03-04T10:45:00.007Z,63.51
2023-03-04T10:47:32.726Z,62.49
2023-03-04T10:50:02.683Z,63.25
2023-03-04T10:52:47.294Z,64.89
2023-03-04T10:55:21.748Z,63.64
2023-03-04T10:58:19.870Z,63.23
2023-03-04T11:01:05.376Z,63.77
2023-03-04T11:03:39.700Z,64.56
2023-03-04T11:06:21.823Z,63.39
2023-03-04T11:08:59.142Z,62.97
2023-03-04T11:11:42.555Z,63.04
2023-03-04T11:14:48.688Z,63.61
2023-03-04T11:17:18.051Z,62.91
2023-03-04T11:19:53.447Z,62.82
2023-03-04T11:22:23.141Z,61.75
2023-03-04T11:25:40.354Z,62.52
2023-03-04T11:31:52.969Z,61.14
2023-03-04T11:34:27.308Z,59.74
2023-03-04T11:37:04.708Z,60.26
2023-03-04T11:45:02.619Z,58.84
2023-03-04T11:47:38.828Z,57.53
2023-03-04T11:50:19.800Z,56.81
2023-03-04T11:53:24.477Z,57.03
2023-03-04T12:01:33.858Z,57.47
2023-03-04T12:04:10.209Z,58.45
2023-03-04T12:06:40.368Z,57.43
2023-03-04T12:09:13.524Z,55.88
2023-03-04T12:12:08.159Z,56.74
2023-03-04T12:15:04.814Z,56.42
2023-03-04T12:17:41.369Z,55.90
2023-03-04T12:20:25.482Z,54.88
2023-03-04T12:22:59.344Z,56.83
2023-03-04T12:26:04.538Z,56.99
2023-03-04T12:29:03.811Z,55.08
2023-03-04T12:31:41.339Z,55.39
2023-03-04T12:34:11.524Z,55.40
2023-03-04T12:40:38.124Z,56.30
2023-03-04T12:43:44.640Z,55.79
2023-03-04T12:46:27.037Z,55.22
2023-03-04T12:49:49.796Z,56.14
2023-03-04T12:52:45.690Z,55.61
2023-03-04T12:55:52.905Z,55.28
2023-03-04T12:58:50.551Z,55.32
2023-03-04T13:02:07.310Z,56.22
2023-03-04T13:06:45.059Z,57.15
2023-03-04T13:09:28.091Z,58.40
2023-03-04T13:12:20.975Z,59.39
2023-03-04T13:15:05.371Z,58.76
2023-03-04T13:17:51.583Z,58.66
2023-03-04T13:20:35.075Z,58.76
2023-03-04T13:23:08.292Z,60.17
2023-03-04T13:25:37.492Z,61.01
2023-03-04T13:28:12.696Z,61.69
2023-03-04T13:31:11.265Z,61.54
2023-03-04T13:33:38.313Z,60.96
2023-03-04T13:36:25.212Z,59.48
2023-03-04T13:39:15.012Z,59.25
2023-03-04T13:41:53.242Z,60.23
2023-03-04T13:44:56.899Z,60.27
2023-03-04T13:47:41.392Z,60.32
2023-03-04T13:50:29.504Z,58.64
2023-03-04T13:53:23.267Z,58.73
2023-03-04T13:56:13.909Z,58.84
2023-03-04T13:58:48.190Z,58.68
2023-03-04T14:01:33.513Z,59.01
2023-03-04T14:04:12.443Z,59.88
2023-03-04T14:06:47.070Z,60.31
2023-03-04T14:09:16.102Z,60.18
2023-03-04T14:11:44.366Z,60.41
2023-03-04T14:14:15.363Z,60.54
2023-03-04T14:16:51.552Z,60.95
2023-03-04T14:19:32.886Z,61.32
2023-03-04T14:22:00.572Z,61.33
2023-03-04T14:24:30.359Z,61.36
2023-03-04T14:27:11.225Z,62.10
2023-03-04T14:29:38.650Z,62.94
2023-03-04T14:32:06.350Z,63.50
2023-03-04T14:34:38.961Z,62.24
2023-03-04T14:37:32.658Z,60.55
2023-03-04T14:40:01.239Z,60.22
2023-03-04T14:42:40.102Z,59.94
2023-03-04T14:45:13.891Z,59.93
2023-03-04T14:47:47.996Z,60.48
2023-03-04T14:50:20.042Z,60.55
2023-03-04T14:53:14.886Z,60.69
2023-03-04T14:56:05.994Z,60.74
2023-03-04T14:58:52.660Z,61.26
2023-03-04T15:01:23.112Z,62.15
2023-03-04T15:04:04.161Z,62.43
2023-03-04T15:06:47.383Z,62.29
2023-03-04T15:09:22.409Z,62.66
2023-03-04T15:11:55.754Z,62.56
2023-03-04T15:14:46.820Z,62.30
2023-03-04T15:17:24.368Z,62.21
2023-03-04T15:20:07.467Z,62.35
2023-03-04T15:22:48.609Z,62.73
2023-03-04T15:25:20.034Z,63.28
2023-03-04T15:27:53.530Z,63.10
2023-03-04T15:30:23.571Z,63.74
2023-03-04T15:32:53.998Z,64.13
2023-03-04T15:35:22.571Z,64.66
2023-03-04T15:37:54.193Z,65.25
2023-03-04T15:40:35.086Z,65.93
2023-03-04T15:43:04.275Z,66.46
2023-03-04T15:45:37.792Z,66.91
2023-03-04T15:48:11.295Z,67.80
2023-03-04T15:50:43.292Z,68.37
2023-03-04T15:53:22.805Z,69.34
2023-03-04T15:55:51.273Z,70.12
2023-03-04T15:58:20.240Z,71.16
2023-03-04T16:00:47.228Z,72.00
2023-03-04T16:03:19.960Z,72.84
2023-03-04T16:05:50.188Z,73.75
2023-03-04T16:08:24.614Z,74.89
2023-03-04T16:10:53.334Z,76.12
2023-03-04T16:13:22.872Z,77.23
2023-03-04T16:15:51.811Z,77.54
2023-03-04T16:18:19.036Z,78.99
2023-03-04T16:20:48.245Z,79.31
2023-03-04T16:23:20.144Z,79.77
2023-03-04T16:25:49.293Z,80.88
2023-03-04T16:28:16.344Z,81.41
2023-03-04T16:30:43.284Z,82.11
2023-03-04T16:33:11.069Z,83.09
2023-03-04T16:35:40.798Z,82.92
2023-03-04T16:38:19.502Z,83.21
2023-03-04T16:40:53.120Z,83.85
2023-03-04T16:43:21.050Z,84.11
2023-03-04T16:45:48.285Z,84.12
2023-03-04T16:48:15.953Z,84.60
2023-03-04T16:50:44.108Z,85.30
2023-03-04T16:53:32.068Z,85.52
2023-03-04T16:56:11.331Z,85.86
2023-03-04T16:58:40.975Z,86.13
2023-03-04T17:01:19.000Z,86.34
2023-03-04T17:03:47.205Z,86.98
2023-03-04T17:06:15.700Z,87.79
2023-03-04T17:08:42.776Z,88.73
2023-03-04T17:11:18.067Z,89.34
2023-03-04T17:13:47.279Z,89.55
2023-03-04T17:16:14.775Z,89.87
2023-03-04T17:18:43.852Z,90.27
2023-03-04T17:21:14.679Z,90.65
2023-03-04T17:23:41.838Z,91.31
2023-03-04T17:26:15.039Z,91.69
2023-03-04T17:28:42.373Z,92.18
2023-03-04T17:31:14.510Z,93.14
2023-03-04T17:33:46.965Z,94.29
2023-03-04T17:36:15.587Z,94.87
2023-03-04T17:38:43.099Z,95.57
2023-03-04T17:50:35.934Z,97.76
2023-03-04T17:53:02.991Z,98.40
2023-03-04T17:55:30.023Z,98.57
2023-03-04T17:57:57.848Z,97.85
2023-03-04T18:00:25.020Z,98.42
2023-03-04T18:02:52.011Z,98.74
2023-03-04T18:05:19.211Z,98.83
2023-03-04T18:07:46.166Z,98.95
2023-03-04T18:10:13.713Z,99.55
2023-03-04T18:12:41.056Z,99.97
2023-03-04T18:15:09.591Z,100.00
2023-03-04T18:17:36.899Z,100.00
2023-03-04T18:20:04.380Z,100.00
2023-03-04T18:22:34.948Z,100.00
2023-03-04T18:25:01.830Z,100.00
2023-03-04T18:27:29.788Z,100.00
2023-03-04T18:29:58.170Z,100.00
2023-03-04T18:32:25.327Z,100.00
2023-03-04T18:34:54.661Z,100.00
2023-03-04T18:37:21.749Z,100.00
2023-03-04T18:39:51.224Z,100.00
2023-03-04T18:42:19.392Z,100.00
2023-03-04T18:44:46.510Z,100.00
2023-03-04T18:47:13.771Z,100.00
2023-03-04T18:49:43.226Z,100.00
2023-03-04T18:52:11.985Z,100.00
2023-03-04T18:54:39.669Z,100.00
2023-03-04T18:57:10.757Z,100.00
2023-03-04T18:59:47.230Z,100.00
2023-03-04T19:02:29.966Z,100.00
2023-03-04T19:05:02.574Z,100.00
2023-03-04T19:07:29.658Z,100.00
2023-03-04T19:09:56.552Z,100.00
2023-03-04T19:12:23.508Z,100.00
2023-03-04T19:14:50.790Z,100.00
2023-03-04T19:17:18.277Z,100.00
2023-03-04T19:19:45.357Z,100.00
2023-03-04T19:22:12.910Z,100.00
2023-03-04T19:24:40.042Z,100.00
2023-03-04T19:27:08.934Z,100.00
2023-03-04T19:29:38.503Z,100.00
2023-03-04T19:32:09.016Z,100.00
2023-03-04T19:34:36.839Z,100.00
2023-03-04T19:37:03.706Z,100.00
2023-03-04T19:39:31.693Z,100.00
2023-03-04T19:41:58.570Z,100.00
2023-03-04T19:44:25.593Z,100.00
2023-03-04T19:46:52.610Z,100.00
2023-03-04T19:49:23.785Z,100.00
2023-03-04T19:51:51.134Z,100.00
2023-03-04T19:54:18.253Z,100.00
2023-03-04T19:56:45.428Z,100.00
2023-03-04T19:59:12.662Z,100.00
2023-03-04T20:01:41.154Z,100.00
2023-03-04T20:04:11.283Z,100.00
2023-03-04T20:06:41.812Z,100.00
2023-03-04T20:09:10.746Z,100.00
2023-03-04T20:11:50.745Z,100.00
2023-03-04T20:14:27.820Z,100.00
2023-03-04T20:17:00.097Z,100.00
2023-03-04T20:19:27.165Z,100.00
2023-03-04T20:21:56.340Z,100.00
2023-03-04T20:24:24.169Z,100.00
2023-03-04T20:26:53.344Z,100.00
2023-03-04T20:29:20.350Z,100.00
2023-03-04T20:31:48.044Z,100.00
2023-03-04T20:34:15.570Z,100.00
2023-03-04T20:36:42.530Z,100.00
2023-03-04T20:39:27.091Z,100.00
2023-03-04T20:41:56.901Z,100.00
2023-03-04T20:44:24.122Z,100.00
2023-03-04T20:46:51.742Z,100.00
2023-03-04T20:49:23.390Z,100.00
2023-03-04T20:51:59.787Z,100.00
2023-03-04T20:54:26.694Z,100.00
2023-03-04T20:56:53.707Z,100.00
2023-03-04T20:59:22.232Z,100.00
2023-03-04T21:01:49.466Z,100.00
2023-03-04T21:04:17.429Z,100.00
2023-03-04T21:06:46.728Z,100.00
2023-03-04T21:09:16.913Z,100.00
2023-03-04T21:11:45.498Z,100.00
2023-03-04T21:14:23.821Z,100.00
2023-03-04T21:16:58.583Z,100.00
2023-03-04T21:19:28.858Z,100.00
2023-03-04T21:22:01.809Z,100.00
2023-03-04T21:24:32.886Z,100.00
2023-03-04T21:27:01.136Z,100.00
2023-03-04T21:29:29.676Z,100.00
2023-03-04T21:32:22.433Z,100.00
2023-03-04T21:34:53.544Z,100.00
2023-03-04T21:37:23.169Z,100.00
2023-03-04T21:39:52.561Z,100.00
2023-03-04T21:42:20.579Z,100.00
2023-03-04T21:44:50.559Z,100.00
2023-03-04T21:47:19.918Z,100.00
2023-03-04T21:49:47.316Z,100.00
2023-03-04T21:52:14.369Z,100.00
2023-03-04T21:54:41.538Z,100.00
2023-03-04T21:57:13.169Z,100.00
2023-03-04T21:59:40.646Z,100.00
2023-03-04T22:02:15.365Z,100.00
2023-03-04T22:04:44.690Z,100.00
2023-03-04T22:07:12.989Z,100.00
2023-03-04T22:09:41.729Z,100.00
2023-03-04T22:12:09.311Z,100.00
2023-03-04T22:14:36.573Z,100.00
2023-03-04T22:17:03.655Z,100.00
2023-03-04T22:19:32.152Z,100.00
2023-03-04T22:21:59.780Z,100.00
2023-03-04T22:24:27.030Z,100.00
2023-03-04T22:26:56.250Z,100.00
2023-03-04T22:29:23.170Z,100.00
2023-03-04T22:31:50.250Z,100.00
2023-03-04T22:34:19.418Z,100.00
2023-03-04T22:36:48.246Z,100.00
2023-03-04T22:39:22.333Z,100.00
2023-03-04T22:41:49.489Z,100.00
2023-03-04T22:44:16.721Z,100.00
2023-03-04T22:46:44.179Z,100.00
2023-03-04T22:49:12.717Z,100.00
2023-03-04T22:51:42.713Z,100.00
2023-03-04T22:54:17.608Z,100.00
2023-03-04T22:56:45.163Z,100.00
2023-03-04T22:59:12.810Z,100.00
2023-03-04T23:01:44.016Z,100.00
2023-03-04T23:04:11.344Z,100.00
2023-03-04T23:06:38.617Z,100.00
2023-03-04T23:09:12.426Z,100.00
2023-03-04T23:11:42.026Z,100.00
2023-03-04T23:14:11.261Z,100.00
2023-03-04T23:16:46.769Z,100.00
2023-03-04T23:19:16.978Z,100.00
2023-03-04T23:21:44.259Z,100.00
2023-03-04T23:24:12.510Z,100.00
2023-03-04T23:26:41.002Z,100.00
2023-03-04T23:29:11.402Z,100.00
2023-03-04T23:31:38.623Z,100.00
2023-03-04T23:34:07.434Z,100.00
2023-03-04T23:36:36.819Z,100.00
2023-03-04T23:39:05.647Z,100.00
2023-03-04T23:41:35.299Z,100.00
2023-03-04T23:44:05.580Z,100.00
2023-03-04T23:46:34.013Z,100.00
2023-03-04T23:49:01.287Z,100.00
2023-03-04T23:51:29.451Z,100.00
2023-03-04T23:53:56.468Z,100.00
